sensor_id;sensor_type;location;lat;lon;timestamp;pressure;altitude;pressure_sealevel;temperature;humidity
15634;BME280;14654;48.898;8.308;2023-02-11T00:01:49;102461.59;;;-2.17;100.00
15634;BME280;14654;48.898;8.308;2023-02-11T00:04:14;102458.19;;;-2.17;100.00
15634;BME280;14654;48.898;8.308;2023-02-11T00:06:40;102457.28;;;-2.18;100.00
15634;BME280;14654;48.898;8.308;2023-02-11T00:09:06;102461.59;;;-2.17;100.00
15634;BME280;14654;48.898;8.308;2023-02-11T00:11:31;102461.59;;;-2.17;100.00
15634;BME280;14654;48.898;8.308;2023-02-11T00:13:58;102465.03;;;-2.16;100.00
15634;BME280;14654;48.898;8.308;2023-02-11T00:16:24;102462.50;;;-2.16;100.00
15634;BME280;14654;48.898;8.308;2023-02-11T00:18:50;102463.38;;;-2.16;100.00
15634;BME280;14654;48.898;8.308;2023-02-11T00:21:19;102459.97;;;-2.16;100.00
15634;BME280;14654;48.898;8.308;2023-02-11T00:23:45;102479.59;;;-2.13;100.00
15634;BME280;14654;48.898;8.308;2023-02-11T00:26:16;102470.13;;;-2.16;100.00
15634;BME280;14654;48.898;8.308;2023-02-11T00:28:42;102466.06;;;-2.14;100.00
15634;BME280;14654;48.898;8.308;2023-02-11T00:31:07;102462.63;;;-2.15;100.00
15634;BME280;14654;48.898;8.308;2023-02-11T00:33:32;102456.91;;;-2.12;100.00
15634;BME280;14654;48.898;8.308;2023-02-11T00:36:02;102451.84;;;-2.12;100.00
15634;BME280;14654;48.898;8.308;2023-02-11T00:38:28;102451.94;;;-2.10;100.00
15634;BME280;14654;48.898;8.308;2023-02-11T00:40:53;102457.25;;;-2.07;100.00
15634;BME280;14654;48.898;8.308;2023-02-11T00:43:18;102458.28;;;-2.05;100.00
15634;BME280;14654;48.898;8.308;2023-02-11T00:45:44;102460.25;;;-2.01;100.00
15634;BME280;14654;48.898;8.308;2023-02-11T00:48:09;102458.88;;;-1.97;100.00
15634;BME280;14654;48.898;8.308;2023-02-11T00:50:34;102449.81;;;-1.94;100.00
15634;BME280;14654;48.898;8.308;2023-02-11T00:52:59;102457.88;;;-1.88;100.00
15634;BME280;14654;48.898;8.308;2023-02-11T00:55:25;102446.44;;;-1.82;100.00
15634;BME280;14654;48.898;8.308;2023-02-11T00:57:50;102437.53;;;-1.77;100.00
15634;BME280;14654;48.898;8.308;2023-02-11T01:00:16;102442.06;;;-1.73;100.00
15634;BME280;14654;48.898;8.308;2023-02-11T01:02:41;102447.50;;;-1.69;100.00
15634;BME280;14654;48.898;8.308;2023-02-11T01:05:07;102444.56;;;-1.63;100.00
15634;BME280;14654;48.898;8.308;2023-02-11T01:07:32;102439.72;;;-1.60;100.00
15634;BME280;14654;48.898;8.308;2023-02-11T01:09:58;102446.66;;;-1.57;100.00
15634;BME280;14654;48.898;8.308;2023-02-11T01:12:23;102437.50;;;-1.55;100.00
15634;BME280;14654;48.898;8.308;2023-02-11T01:14:49;102430.91;;;-1.53;100.00
15634;BME280;14654;48.898;8.308;2023-02-11T01:17:15;102426.78;;;-1.51;100.00
15634;BME280;14654;48.898;8.308;2023-02-11T01:19:40;102425.38;;;-1.47;100.00
15634;BME280;14654;48.898;8.308;2023-02-11T01:22:05;102419.88;;;-1.42;100.00
15634;BME280;14654;48.898;8.308;2023-02-11T01:24:31;102411.94;;;-1.34;100.00
15634;BME280;14654;48.898;8.308;2023-02-11T01:26:56;102404.78;;;-1.28;100.00
15634;BME280;14654;48.898;8.308;2023-02-11T01:29:22;102396.94;;;-1.19;100.00
15634;BME280;14654;48.898;8.308;2023-02-11T01:31:48;102410.22;;;-1.12;100.00
15634;BME280;14654;48.898;8.308;2023-02-11T01:34:13;102408.31;;;-1.02;100.00
15634;BME280;14654;48.898;8.308;2023-02-11T01:36:39;102408.88;;;-0.95;100.00
15634;BME280;14654;48.898;8.308;2023-02-11T01:39:04;102410.19;;;-0.88;100.00
15634;BME280;14654;48.898;8.308;2023-02-11T01:41:30;102406.56;;;-0.80;100.00
15634;BME280;14654;48.898;8.308;2023-02-11T01:43:55;102405.34;;;-0.73;100.00
15634;BME280;14654;48.898;8.308;2023-02-11T01:49:00;102386.09;;;-0.57;100.00
15634;BME280;14654;48.898;8.308;2023-02-11T01:51:31;102394.03;;;-0.53;100.00
15634;BME280;14654;48.898;8.308;2023-02-11T01:53:59;102400.34;;;-0.48;100.00
15634;BME280;14654;48.898;8.308;2023-02-11T01:56:48;102388.81;;;-0.42;100.00
15634;BME280;14654;48.898;8.308;2023-02-11T01:59:38;102387.56;;;-0.36;100.00
15634;BME280;14654;48.898;8.308;2023-02-11T02:02:08;102382.03;;;-0.30;100.00
15634;BME280;14654;48.898;8.308;2023-02-11T02:04:42;102381.47;;;-0.26;100.00
15634;BME280;14654;48.898;8.308;2023-02-11T02:07:13;102385.91;;;-0.23;100.00
15634;BME280;14654;48.898;8.308;2023-02-11T02:09:44;102382.78;;;-0.19;100.00
15634;BME280;14654;48.898;8.308;2023-02-11T02:12:13;102385.44;;;-0.18;100.00
15634;BME280;14654;48.898;8.308;2023-02-11T02:14:39;102379.56;;;-0.17;100.00
15634;BME280;14654;48.898;8.308;2023-02-11T02:17:05;102382.13;;;-0.17;100.00
15634;BME280;14654;48.898;8.308;2023-02-11T02:19:54;102388.97;;;-0.16;100.00
15634;BME280;14654;48.898;8.308;2023-02-11T02:25:27;102390.31;;;-0.21;100.00
15634;BME280;14654;48.898;8.308;2023-02-11T02:31:17;102381.47;;;-0.26;100.00
15634;BME280;14654;48.898;8.308;2023-02-11T02:34:01;102359.94;;;-0.31;100.00
15634;BME280;14654;48.898;8.308;2023-02-11T02:39:18;102370.91;;;-0.44;100.00
15634;BME280;14654;48.898;8.308;2023-02-11T02:41:45;102368.91;;;-0.48;100.00
15634;BME280;14654;48.898;8.308;2023-02-11T02:44:12;102366.28;;;-0.50;100.00
15634;BME280;14654;48.898;8.308;2023-02-11T02:46:37;102371.47;;;-0.48;100.00
15634;BME280;14654;48.898;8.308;2023-02-11T02:49:05;102372.69;;;-0.43;100.00
15634;BME280;14654;48.898;8.308;2023-02-11T03:00:07;102356.19;;;-0.48;100.00
15634;BME280;14654;48.898;8.308;2023-02-11T03:08:21;102342.56;;;-0.74;100.00
15634;BME280;14654;48.898;8.308;2023-02-11T03:10:50;102334.47;;;-0.80;100.00
15634;BME280;14654;48.898;8.308;2023-02-11T03:13:19;102336.72;;;-0.85;100.00
15634;BME280;14654;48.898;8.308;2023-02-11T03:15:49;102334.84;;;-0.87;100.00
15634;BME280;14654;48.898;8.308;2023-02-11T03:18:18;102338.16;;;-0.88;100.00
15634;BME280;14654;48.898;8.308;2023-02-11T03:20:48;102341.56;;;-0.88;100.00
15634;BME280;14654;48.898;8.308;2023-02-11T03:23:22;102346.00;;;-0.85;100.00
15634;BME280;14654;48.898;8.308;2023-02-11T03:25:56;102333.47;;;-0.82;100.00
15634;BME280;14654;48.898;8.308;2023-02-11T03:28:33;102338.56;;;-0.82;100.00
15634;BME280;14654;48.898;8.308;2023-02-11T03:31:33;102328.53;;;-0.81;100.00
15634;BME280;14654;48.898;8.308;2023-02-11T03:34:05;102333.72;;;-0.79;100.00
15634;BME280;14654;48.898;8.308;2023-02-11T03:39:11;102329.38;;;-0.68;100.00
15634;BME280;14654;48.898;8.308;2023-02-11T03:41:40;102324.75;;;-0.62;100.00
15634;BME280;14654;48.898;8.308;2023-02-11T03:44:08;102328.47;;;-0.57;100.00
15634;BME280;14654;48.898;8.308;2023-02-11T03:46:36;102326.34;;;-0.51;100.00
15634;BME280;14654;48.898;8.308;2023-02-11T03:49:07;102329.22;;;-0.46;100.00
15634;BME280;14654;48.898;8.308;2023-02-11T03:51:34;102334.63;;;-0.41;100.00
15634;BME280;14654;48.898;8.308;2023-02-11T03:54:02;102337.38;;;-0.38;100.00
15634;BME280;14654;48.898;8.308;2023-02-11T03:56:32;102342.47;;;-0.38;100.00
15634;BME280;14654;48.898;8.308;2023-02-11T03:59:01;102341.69;;;-0.37;100.00
15634;BME280;14654;48.898;8.308;2023-02-11T04:01:26;102348.41;;;-0.38;100.00
15634;BME280;14654;48.898;8.308;2023-02-11T04:03:52;102353.63;;;-0.36;100.00
15634;BME280;14654;48.898;8.308;2023-02-11T04:06:17;102351.97;;;-0.36;100.00
15634;BME280;14654;48.898;8.308;2023-02-11T04:08:42;102351.19;;;-0.35;100.00
15634;BME280;14654;48.898;8.308;2023-02-11T04:11:08;102346.22;;;-0.33;100.00
15634;BME280;14654;48.898;8.308;2023-02-11T04:13:33;102344.66;;;-0.31;100.00
15634;BME280;14654;48.898;8.308;2023-02-11T04:15:58;102344.66;;;-0.31;100.00
15634;BME280;14654;48.898;8.308;2023-02-11T04:18:24;102343.22;;;-0.27;100.00
15634;BME280;14654;48.898;8.308;2023-02-11T04:20:49;102336.44;;;-0.27;100.00
15634;BME280;14654;48.898;8.308;2023-02-11T04:23:15;102349.28;;;-0.25;100.00
15634;BME280;14654;48.898;8.308;2023-02-11T04:25:41;102343.44;;;-0.24;100.00
15634;BME280;14654;48.898;8.308;2023-02-11T04:28:06;102324.72;;;-0.25;100.00
15634;BME280;14654;48.898;8.308;2023-02-11T04:30:32;102333.25;;;-0.24;100.00
15634;BME280;14654;48.898;8.308;2023-02-11T04:32:57;102326.47;;;-0.24;100.00
15634;BME280;14654;48.898;8.308;2023-02-11T04:35:23;102330.78;;;-0.23;100.00
15634;BME280;14654;48.898;8.308;2023-02-11T04:37:48;102336.88;;;-0.21;100.00
15634;BME280;14654;48.898;8.308;2023-02-11T04:40:13;102339.63;;;-0.18;100.00
15634;BME280;14654;48.898;8.308;2023-02-11T04:42:39;102339.81;;;-0.14;100.00
15634;BME280;14654;48.898;8.308;2023-02-11T04:45:04;102334.84;;;-0.13;100.00
15634;BME280;14654;48.898;8.308;2023-02-11T04:47:32;102335.94;;;-0.09;100.00
15634;BME280;14654;48.898;8.308;2023-02-11T04:49:57;102340.34;;;-0.07;100.00
15634;BME280;14654;48.898;8.308;2023-02-11T04:52:22;102342.88;;;-0.07;100.00
15634;BME280;14654;48.898;8.308;2023-02-11T04:54:47;102343.78;;;-0.06;100.00
15634;BME280;14654;48.898;8.308;2023-02-11T04:57:13;102336.06;;;-0.08;100.00
15634;BME280;14654;48.898;8.308;2023-02-11T04:59:38;102320.66;;;-0.09;100.00
15634;BME280;14654;48.898;8.308;2023-02-11T05:02:04;102318.25;;;-0.08;100.00
15634;BME280;14654;48.898;8.308;2023-02-11T05:04:29;102311.38;;;-0.09;100.00
15634;BME280;14654;48.898;8.308;2023-02-11T05:06:55;102298.66;;;-0.09;100.00
15634;BME280;14654;48.898;8.308;2023-02-11T05:09:20;102296.19;;;-0.07;100.00
15634;BME280;14654;48.898;8.308;2023-02-11T05:11:45;102282.69;;;-0.06;100.00
15634;BME280;14654;48.898;8.308;2023-02-11T05:14:11;102274.06;;;-0.08;100.00
15634;BME280;14654;48.898;8.308;2023-02-11T05:16:36;102279.94;;;-0.09;100.00
15634;BME280;14654;48.898;8.308;2023-02-11T05:19:02;102275.53;;;-0.12;100.00
15634;BME280;14654;48.898;8.308;2023-02-11T05:21:27;102272.88;;;-0.13;100.00
15634;BME280;14654;48.898;8.308;2023-02-11T05:23:53;102277.09;;;-0.14;100.00
15634;BME280;14654;48.898;8.308;2023-02-11T05:26:18;102274.63;;;-0.12;100.00
15634;BME280;14654;48.898;8.308;2023-02-11T05:28:44;102273.06;;;-0.10;100.00
15634;BME280;14654;48.898;8.308;2023-02-11T05:31:10;102273.19;;;-0.09;100.00
15634;BME280;14654;48.898;8.308;2023-02-11T05:33:38;102278.38;;;-0.07;100.00
15634;BME280;14654;48.898;8.308;2023-02-11T05:36:07;102278.47;;;-0.06;100.00
15634;BME280;14654;48.898;8.308;2023-02-11T05:38:33;102264.19;;;-0.04;100.00
15634;BME280;14654;48.898;8.308;2023-02-11T05:40:59;102269.41;;;-0.02;100.00
15634;BME280;14654;48.898;8.308;2023-02-11T05:43:24;102267.72;;;-0.02;100.00
15634;BME280;14654;48.898;8.308;2023-02-11T05:45:49;102266.06;;;-0.01;100.00
15634;BME280;14654;48.898;8.308;2023-02-11T05:48:15;102272.13;;;0.01;100.00
15634;BME280;14654;48.898;8.308;2023-02-11T05:50:40;102279.66;;;-0.01;100.00
15634;BME280;14654;48.898;8.308;2023-02-11T05:53:06;102282.22;;;-0.01;100.00
15634;BME280;14654;48.898;8.308;2023-02-11T05:55:32;102289.06;;;0.01;100.00
15634;BME280;14654;48.898;8.308;2023-02-11T05:57:57;102287.41;;;0.01;100.00
15634;BME280;14654;48.898;8.308;2023-02-11T06:00:23;102288.28;;;0.02;100.00
15634;BME280;14654;48.898;8.308;2023-02-11T06:02:48;102288.28;;;0.02;100.00
15634;BME280;14654;48.898;8.308;2023-02-11T06:05:14;102288.97;;;-0.01;100.00
15634;BME280;14654;48.898;8.308;2023-02-11T06:07:39;102292.19;;;-0.04;100.00
15634;BME280;14654;48.898;8.308;2023-02-11T06:10:05;102304.53;;;-0.10;100.00
15634;BME280;14654;48.898;8.308;2023-02-11T06:12:31;102304.19;;;-0.14;100.00
15634;BME280;14654;48.898;8.308;2023-02-11T06:14:56;102295.38;;;-0.20;100.00
15634;BME280;14654;48.898;8.308;2023-02-11T06:17:22;102301.81;;;-0.25;100.00
15634;BME280;14654;48.898;8.308;2023-02-11T06:19:47;102307.47;;;-0.29;100.00
15634;BME280;14654;48.898;8.308;2023-02-11T06:22:13;102310.69;;;-0.32;100.00
15634;BME280;14654;48.898;8.308;2023-02-11T06:24:38;102312.16;;;-0.35;100.00
15634;BME280;14654;48.898;8.308;2023-02-11T06:27:03;102315.34;;;-0.38;100.00
15634;BME280;14654;48.898;8.308;2023-02-11T06:29:29;102306.75;;;-0.40;100.00
15634;BME280;14654;48.898;8.308;2023-02-11T06:31:55;102317.72;;;-0.41;100.00
15634;BME280;14654;48.898;8.308;2023-02-11T06:34:20;102313.38;;;-0.42;100.00
15634;BME280;14654;48.898;8.308;2023-02-11T06:36:45;102310.06;;;-0.41;100.00
15634;BME280;14654;48.898;8.308;2023-02-11T06:39:12;102301.53;;;-0.41;100.00
15634;BME280;14654;48.898;8.308;2023-02-11T06:41:37;102299.78;;;-0.42;100.00
15634;BME280;14654;48.898;8.308;2023-02-11T06:44:03;102297.03;;;-0.45;100.00
15634;BME280;14654;48.898;8.308;2023-02-11T06:46:28;102304.56;;;-0.47;100.00
15634;BME280;14654;48.898;8.308;2023-02-11T06:48:53;102298.59;;;-0.48;100.00
15634;BME280;14654;48.898;8.308;2023-02-11T06:51:18;102294.38;;;-0.47;100.00
15634;BME280;14654;48.898;8.308;2023-02-11T06:53:45;102297.03;;;-0.45;100.00
15634;BME280;14654;48.898;8.308;2023-02-11T06:56:13;102299.59;;;-0.45;100.00
15634;BME280;14654;48.898;8.308;2023-02-11T06:58:39;102308.97;;;-0.44;100.00
15634;BME280;14654;48.898;8.308;2023-02-11T07:01:06;102312.41;;;-0.44;100.00
15634;BME280;14654;48.898;8.308;2023-02-11T07:03:35;102311.06;;;-0.39;100.00
15634;BME280;14654;48.898;8.308;2023-02-11T07:06:05;102305.50;;;-0.33;100.00
15634;BME280;14654;48.898;8.308;2023-02-11T07:08:35;102314.31;;;-0.28;100.00
15634;BME280;14654;48.898;8.308;2023-02-11T07:11:16;102312.19;;;-0.22;100.00
15634;BME280;14654;48.898;8.308;2023-02-11T07:13:43;102311.81;;;-0.14;100.00
15634;BME280;14654;48.898;8.308;2023-02-11T07:16:11;102313.25;;;-0.06;100.00
15634;BME280;14654;48.898;8.308;2023-02-11T07:18:37;102316.09;;;-0.02;100.00
15634;BME280;14654;48.898;8.308;2023-02-11T07:21:07;102318.16;;;0.04;100.00
15634;BME280;14654;48.898;8.308;2023-02-11T07:23:33;102316.91;;;0.11;100.00
15634;BME280;14654;48.898;8.308;2023-02-11T07:26:19;102321.72;;;0.20;100.00
15634;BME280;14654;48.898;8.308;2023-02-11T07:28:48;102326.25;;;0.24;100.00
15634;BME280;14654;48.898;8.308;2023-02-11T07:31:16;102323.31;;;0.31;100.00
15634;BME280;14654;48.898;8.308;2023-02-11T07:33:42;102330.50;;;0.37;100.00
15634;BME280;14654;48.898;8.308;2023-02-11T07:36:10;102334.22;;;0.42;100.00
15634;BME280;14654;48.898;8.308;2023-02-11T07:38:37;102354.09;;;0.48;100.00
15634;BME280;14654;48.898;8.308;2023-02-11T07:41:08;102352.97;;;0.56;100.00
15634;BME280;14654;48.898;8.308;2023-02-11T07:43:35;102359.63;;;0.67;100.00
15634;BME280;14654;48.898;8.308;2023-02-11T07:46:08;102355.94;;;0.75;100.00
15634;BME280;14654;48.898;8.308;2023-02-11T07:48:34;102357.38;;;0.85;100.00
15634;BME280;14654;48.898;8.308;2023-02-11T07:51:07;102356.31;;;0.95;100.00
15634;BME280;14654;48.898;8.308;2023-02-11T07:53:33;102349.13;;;1.03;100.00
15634;BME280;14654;48.898;8.308;2023-02-11T07:55:59;102343.66;;;1.10;100.00
15634;BME280;14654;48.898;8.308;2023-02-11T07:58:24;102342.38;;;1.17;100.00
15634;BME280;14654;48.898;8.308;2023-02-11T08:00:49;102357.25;;;1.24;100.00
15634;BME280;14654;48.898;8.308;2023-02-11T08:03:15;102361.00;;;1.29;100.00
15634;BME280;14654;48.898;8.308;2023-02-11T08:05:40;102364.72;;;1.34;100.00
15634;BME280;14654;48.898;8.308;2023-02-11T08:08:06;102355.47;;;1.36;100.00
15634;BME280;14654;48.898;8.308;2023-02-11T08:10:31;102350.47;;;1.38;100.00
15634;BME280;14654;48.898;8.308;2023-02-11T08:12:57;102349.78;;;1.41;100.00
15634;BME280;14654;48.898;8.308;2023-02-11T08:15:22;102352.53;;;1.44;100.00
15634;BME280;14654;48.898;8.308;2023-02-11T08:17:47;102351.94;;;1.48;100.00
15634;BME280;14654;48.898;8.308;2023-02-11T08:20:13;102344.47;;;1.51;99.53
15634;BME280;14654;48.898;8.308;2023-02-11T08:22:38;102340.22;;;1.51;99.35
15634;BME280;14654;48.898;8.308;2023-02-11T08:25:03;102336.13;;;1.54;99.30
15634;BME280;14654;48.898;8.308;2023-02-11T08:27:29;102331.72;;;1.51;99.10
15634;BME280;14654;48.898;8.308;2023-02-11T08:29:55;102330.63;;;1.47;99.24
15634;BME280;14654;48.898;8.308;2023-02-11T08:32:20;102334.59;;;1.42;99.47
15634;BME280;14654;48.898;8.308;2023-02-11T08:34:52;102326.53;;;1.36;99.58
15634;BME280;14654;48.898;8.308;2023-02-11T08:37:18;102335.69;;;1.32;100.00
15634;BME280;14654;48.898;8.308;2023-02-11T08:39:43;102332.94;;;1.29;100.00
15634;BME280;14654;48.898;8.308;2023-02-11T08:42:12;102335.19;;;1.25;100.00
15634;BME280;14654;48.898;8.308;2023-02-11T08:44:37;102329.97;;;1.23;100.00
15634;BME280;14654;48.898;8.308;2023-02-11T08:47:02;102330.69;;;1.20;100.00
15634;BME280;14654;48.898;8.308;2023-02-11T08:49:28;102332.25;;;1.18;100.00
15634;BME280;14654;48.898;8.308;2023-02-11T08:51:54;102337.28;;;1.17;100.00
15634;BME280;14654;48.898;8.308;2023-02-11T08:54:20;102342.25;;;1.15;100.00
15634;BME280;14654;48.898;8.308;2023-02-11T08:56:50;102342.38;;;1.17;100.00
15634;BME280;14654;48.898;8.308;2023-02-11T08:59:15;102338.91;;;1.16;100.00
15634;BME280;14654;48.898;8.308;2023-02-11T09:01:42;102335.59;;;1.17;100.00
15634;BME280;14654;48.898;8.308;2023-02-11T09:04:09;102329.63;;;1.17;100.00
15634;BME280;14654;48.898;8.308;2023-02-11T09:06:34;102330.41;;;1.16;100.00
15634;BME280;14654;48.898;8.308;2023-02-11T09:09:00;102335.59;;;1.17;100.00
15634;BME280;14654;48.898;8.308;2023-02-11T09:11:31;102325.38;;;1.17;100.00
15634;BME280;14654;48.898;8.308;2023-02-11T09:13:56;102333.16;;;1.19;100.00
15634;BME280;14654;48.898;8.308;2023-02-11T09:16:28;102321.47;;;1.23;100.00
15634;BME280;14654;48.898;8.308;2023-02-11T09:18:57;102319.66;;;1.35;100.00
15634;BME280;14654;48.898;8.308;2023-02-11T09:21:23;102311.31;;;1.51;100.00
15634;BME280;14654;48.898;8.308;2023-02-11T09:23:49;102309.75;;;1.68;100.00
15634;BME280;14654;48.898;8.308;2023-02-11T09:26:23;102305.75;;;1.87;100.00
15634;BME280;14654;48.898;8.308;2023-02-11T09:28:49;102304.09;;;2.02;100.00
15634;BME280;14654;48.898;8.308;2023-02-11T09:31:18;102315.09;;;2.16;99.79
15634;BME280;14654;48.898;8.308;2023-02-11T09:33:46;102315.81;;;2.28;99.27
15634;BME280;14654;48.898;8.308;2023-02-11T09:36:29;102316.53;;;2.41;99.06
15634;BME280;14654;48.898;8.308;2023-02-11T09:38:57;102310.53;;;2.55;98.44
15634;BME280;14654;48.898;8.308;2023-02-11T09:43:50;102315.50;;;2.84;97.09
15634;BME280;14654;48.898;8.308;2023-02-11T09:46:18;102319.81;;;3.00;96.56
15634;BME280;14654;48.898;8.308;2023-02-11T09:48:45;102308.72;;;3.16;96.08
15634;BME280;14654;48.898;8.308;2023-02-11T09:51:39;102318.44;;;3.38;95.15
15634;BME280;14654;48.898;8.308;2023-02-11T09:54:12;102313.56;;;3.59;94.00
15634;BME280;14654;48.898;8.308;2023-02-11T09:56:41;102316.28;;;3.79;93.26
15634;BME280;14654;48.898;8.308;2023-02-11T09:59:12;102313.94;;;4.00;92.27
15634;BME280;14654;48.898;8.308;2023-02-11T10:01:43;102316.63;;;4.20;91.49
15634;BME280;14654;48.898;8.308;2023-02-11T10:07:20;102327.53;;;4.68;89.57
15634;BME280;14654;48.898;8.308;2023-02-11T10:20:32;102325.75;;;6.20;83.93
15634;BME280;14654;48.898;8.308;2023-02-11T10:23:18;102329.91;;;6.37;83.15
15634;BME280;14654;48.898;8.308;2023-02-11T10:25:49;102330.41;;;6.50;82.46
15634;BME280;14654;48.898;8.308;2023-02-11T10:28:22;102320.38;;;6.56;81.60
15634;BME280;14654;48.898;8.308;2023-02-11T10:31:08;102319.28;;;6.51;80.95
15634;BME280;14654;48.898;8.308;2023-02-11T10:33:39;102317.22;;;6.42;80.57
15634;BME280;14654;48.898;8.308;2023-02-11T10:36:10;102327.06;;;6.31;81.28
15634;BME280;14654;48.898;8.308;2023-02-11T10:38:36;102316.53;;;6.25;81.58
15634;BME280;14654;48.898;8.308;2023-02-11T10:41:01;102314.47;;;6.16;81.64
15634;BME280;14654;48.898;8.308;2023-02-11T10:43:29;102313.53;;;6.14;81.58
15634;BME280;14654;48.898;8.308;2023-02-11T10:45:56;102311.91;;;6.16;81.96
15634;BME280;14654;48.898;8.308;2023-02-11T10:53:38;102302.38;;;6.35;81.52
15634;BME280;14654;48.898;8.308;2023-02-11T10:56:06;102299.19;;;6.40;81.16
15634;BME280;14654;48.898;8.308;2023-02-11T10:58:52;102294.44;;;6.51;80.97
15634;BME280;14654;48.898;8.308;2023-02-11T11:01:19;102284.59;;;6.62;80.44
15634;BME280;14654;48.898;8.308;2023-02-11T11:03:49;102283.06;;;6.67;80.44
15634;BME280;14654;48.898;8.308;2023-02-11T11:06:16;102276.31;;;6.69;80.44
15634;BME280;14654;48.898;8.308;2023-02-11T11:08:52;102274.72;;;6.73;80.25
15634;BME280;14654;48.898;8.308;2023-02-11T11:11:19;102267.66;;;6.67;80.00
15634;BME280;14654;48.898;8.308;2023-02-11T11:16:25;102274.50;;;6.46;80.28
15634;BME280;14654;48.898;8.308;2023-02-11T11:21:45;102283.63;;;6.60;80.61
15634;BME280;14654;48.898;8.308;2023-02-11T11:26:58;102269.19;;;6.85;80.48
15634;BME280;14654;48.898;8.308;2023-02-11T11:32:05;102276.75;;;7.05;79.71
15634;BME280;14654;48.898;8.308;2023-02-11T11:34:37;102272.63;;;7.08;79.85
15634;BME280;14654;48.898;8.308;2023-02-11T11:37:25;102267.69;;;7.14;79.91
15634;BME280;14654;48.898;8.308;2023-02-11T11:39:56;102255.91;;;7.21;79.89
15634;BME280;14654;48.898;8.308;2023-02-11T11:42:31;102267.38;;;7.29;80.03
15634;BME280;14654;48.898;8.308;2023-02-11T11:53:13;102260.63;;;7.33;78.98
15634;BME280;14654;48.898;8.308;2023-02-11T11:55:44;102259.03;;;7.37;79.08
15634;BME280;14654;48.898;8.308;2023-02-11T11:58:15;102256.34;;;7.33;79.34
15634;BME280;14654;48.898;8.308;2023-02-11T12:14:57;102258.06;;;7.57;79.84
15634;BME280;14654;48.898;8.308;2023-02-11T12:26:16;102249.94;;;7.71;79.87
15634;BME280;14654;48.898;8.308;2023-02-11T12:37:05;102232.19;;;7.80;80.38
15634;BME280;14654;48.898;8.308;2023-02-11T12:40:02;102234.06;;;7.84;80.58
15634;BME280;14654;48.898;8.308;2023-02-11T12:42:41;102237.59;;;7.88;80.54
15634;BME280;14654;48.898;8.308;2023-02-11T12:55:58;102217.25;;;7.96;80.55
15634;BME280;14654;48.898;8.308;2023-02-11T12:58:28;102212.09;;;7.96;80.61
15634;BME280;14654;48.898;8.308;2023-02-11T13:01:01;102219.94;;;7.99;81.01
15634;BME280;14654;48.898;8.308;2023-02-11T13:03:36;102211.38;;;8.00;81.19
15634;BME280;14654;48.898;8.308;2023-02-11T13:06:07;102208.06;;;8.04;81.30
15634;BME280;14654;48.898;8.308;2023-02-11T13:08:38;102200.38;;;8.05;81.19
15634;BME280;14654;48.898;8.308;2023-02-11T13:11:25;102204.69;;;8.06;81.21
15634;BME280;14654;48.898;8.308;2023-02-11T13:14:11;102198.72;;;8.07;81.45
15634;BME280;14654;48.898;8.308;2023-02-11T13:16:45;102197.94;;;8.10;81.39
15634;BME280;14654;48.898;8.308;2023-02-11T13:22:22;102200.72;;;8.16;81.62
15634;BME280;14654;48.898;8.308;2023-02-11T13:24:58;102194.78;;;8.19;81.48
15634;BME280;14654;48.898;8.308;2023-02-11T13:38:05;102195.84;;;8.26;81.49
15634;BME280;14654;48.898;8.308;2023-02-11T13:40:41;102194.16;;;8.26;81.86
15634;BME280;14654;48.898;8.308;2023-02-11T13:43:19;102195.09;;;8.28;81.89
15634;BME280;14654;48.898;8.308;2023-02-11T13:45:47;102198.53;;;8.29;82.02
15634;BME280;14654;48.898;8.308;2023-02-11T13:48:29;102202.00;;;8.29;82.02
15634;BME280;14654;48.898;8.308;2023-02-11T13:51:02;102201.94;;;8.28;82.25
15634;BME280;14654;48.898;8.308;2023-02-11T13:53:42;102204.50;;;8.28;82.41
15634;BME280;14654;48.898;8.308;2023-02-11T13:56:11;102204.56;;;8.29;82.26
15634;BME280;14654;48.898;8.308;2023-02-11T13:58:48;102199.44;;;8.31;82.31
15634;BME280;14654;48.898;8.308;2023-02-11T14:05:00;102208.97;;;8.33;82.52
15634;BME280;14654;48.898;8.308;2023-02-11T14:11:01;102200.53;;;8.37;82.80
15634;BME280;14654;48.898;8.308;2023-02-11T14:23:42;102195.50;;;8.42;82.95
15634;BME280;14654;48.898;8.308;2023-02-11T14:29:08;102186.94;;;8.43;83.31
15634;BME280;14654;48.898;8.308;2023-02-11T14:31:43;102179.25;;;8.45;83.33
15634;BME280;14654;48.898;8.308;2023-02-11T14:39:54;102187.41;;;8.59;83.13
15634;BME280;14654;48.898;8.308;2023-02-11T14:42:23;102184.91;;;8.60;83.02
15634;BME280;14654;48.898;8.308;2023-02-11T14:44:53;102178.81;;;8.58;83.28
15634;BME280;14654;48.898;8.308;2023-02-11T14:47:26;102178.84;;;8.60;83.37
15634;BME280;14654;48.898;8.308;2023-02-11T14:49:53;102175.53;;;8.64;83.40
15634;BME280;14654;48.898;8.308;2023-02-11T14:54:51;102189.03;;;8.84;83.34
15634;BME280;14654;48.898;8.308;2023-02-11T14:57:22;102191.09;;;8.96;83.23
15634;BME280;14654;48.898;8.308;2023-02-11T14:59:56;102187.91;;;9.05;83.04
15634;BME280;14654;48.898;8.308;2023-02-11T15:02:37;102189.81;;;9.12;82.82
15634;BME280;14654;48.898;8.308;2023-02-11T15:07:52;102178.91;;;9.22;82.63
15634;BME280;14654;48.898;8.308;2023-02-11T15:10:33;102170.34;;;9.25;82.71
15634;BME280;14654;48.898;8.308;2023-02-11T15:13:01;102186.78;;;9.27;82.72
15634;BME280;14654;48.898;8.308;2023-02-11T15:15:28;102191.06;;;9.26;82.61
15634;BME280;14654;48.898;8.308;2023-02-11T15:17:55;102191.94;;;9.27;82.98
15634;BME280;14654;48.898;8.308;2023-02-11T15:20:27;102196.22;;;9.26;82.81
15634;BME280;14654;48.898;8.308;2023-02-11T15:23:02;102196.09;;;9.22;82.78
15634;BME280;14654;48.898;8.308;2023-02-11T15:25:29;102191.63;;;9.14;83.19
15634;BME280;14654;48.898;8.308;2023-02-11T15:27:56;102188.81;;;9.07;83.30
15634;BME280;14654;48.898;8.308;2023-02-11T15:32:49;102199.34;;;8.84;83.74
15634;BME280;14654;48.898;8.308;2023-02-11T15:35:15;102199.03;;;8.73;84.10